Time;durP1;ratioP1;P1;durP2;ratioP2;P2;SDS_P1;SDS_P2;PMS_P1;PMS_P2;Temp;Humidity;BMP_temperature;BMP_pressure;BME280_temperature;BME280_humidity;BME280_pressure;Samples;Min_cycle;Max_cycle;Signal;HPM_P1;HPM_P2
2024/02/25 00:03:55;;;;;;;5.97;5.43;;;1.40;99.90;;;2.05;100.00;97022.31;10368000;28;20232;-66
2024/02/25 00:08:58;;;;;;;5.70;4.80;;;1.40;99.90;;;2.16;100.00;97024.00;10367712;28;20234;-66
2024/02/25 00:14:03;;;;;;;5.67;5.17;;;1.30;99.90;;;2.03;100.00;97017.19;10370616;28;20285;-66
2024/02/25 00:19:06;;;;;;;5.53;4.53;;;1.30;99.90;;;1.93;100.00;97028.94;10368005;28;20248;-66
2024/02/25 00:24:10;;;;;;;5.07;4.77;;;1.30;99.90;;;1.95;100.00;97032.47;10367190;28;20229;-66
2024/02/25 00:29:15;;;;;;;4.67;4.23;;;1.30;99.90;;;1.94;100.00;97045.81;10370235;28;20388;-66
2024/02/25 00:34:18;;;;;;;4.90;4.60;;;1.30;99.90;;;1.92;100.00;97042.31;10366413;28;20244;-66
2024/02/25 00:39:22;;;;;;;4.23;3.93;;;1.30;99.90;;;1.94;100.00;97040.78;10362529;28;20258;-66
2024/02/25 00:44:26;;;;;;;4.57;4.17;;;1.20;99.90;;;1.91;100.00;97041.41;10367108;28;20967;-66
2024/02/25 00:49:29;;;;;;;4.83;4.43;;;1.10;99.90;;;1.71;100.00;97049.09;10369112;28;20714;-66
2024/02/25 00:54:33;;;;;;;4.27;3.80;;;1.00;99.90;;;1.67;100.00;97042.94;10366114;28;20731;-66
2024/02/25 00:59:37;;;;;;;3.80;3.60;;;1.00;99.90;;;1.70;100.00;97043.19;10369193;28;20236;-66
2024/02/25 01:04:41;;;;;;;3.80;3.60;;;1.10;99.90;;;1.62;100.00;97039.19;10336625;22;20728;-66
2024/02/25 01:09:44;;;;;;;4.33;4.07;;;1.00;99.90;;;1.58;100.00;97047.28;10317875;28;20643;-66
2024/02/25 01:14:48;;;;;;;3.87;3.53;;;1.00;99.90;;;1.63;100.00;97042.56;10289271;28;20724;-66
2024/02/25 01:19:51;;;;;;;4.17;3.97;;;1.00;99.90;;;1.60;100.00;97037.28;10288729;28;20725;-66
2024/02/25 01:24:55;;;;;;;4.40;4.10;;;1.00;99.90;;;1.54;100.00;97042.72;10281524;28;20235;-66
2024/02/25 01:29:59;;;;;;;4.53;4.13;;;0.90;99.90;;;1.58;100.00;97037.19;10280808;28;20243;-66
2024/02/25 01:35:02;;;;;;;3.47;3.27;;;0.90;99.90;;;1.54;100.00;97027.63;10283817;28;20230;-66
2024/02/25 01:40:08;;;;;;;3.40;3.20;;;0.80;99.90;;;1.43;100.00;97015.84;10290485;28;20236;-66
2024/02/25 01:45:12;;;;;;;3.77;3.57;;;0.80;99.90;;;1.47;100.00;97021.25;10291630;28;20290;-66
2024/02/25 01:50:17;;;;;;;3.97;3.67;;;0.80;99.90;;;1.45;100.00;97021.88;10291321;28;20266;-66
2024/02/25 01:55:20;;;;;;;3.87;3.57;;;0.80;99.90;;;1.37;100.00;97017.88;10290438;28;20715;-66
2024/02/25 02:00:27;;;;;;;4.30;4.03;;;0.70;99.90;;;1.33;100.00;97012.63;10291766;28;20272;-66
2024/02/25 02:05:30;;;;;;;4.57;4.27;;;0.70;99.90;;;1.30;100.00;97014.88;10291829;28;20245;-66
2024/02/25 02:10:33;;;;;;;3.73;3.53;;;0.70;99.90;;;1.21;100.00;97019.22;10288832;28;20231;-67
2024/02/25 02:15:39;;;;;;;3.83;3.63;;;0.70;99.90;;;1.16;100.00;97012.94;10290844;28;20256;-67
2024/02/25 02:20:46;;;;;;;3.77;3.50;;;0.60;99.90;;;1.06;100.00;97010.44;10292052;28;20763;-67
2024/02/25 02:25:50;;;;;;;3.97;3.57;;;0.50;99.90;;;1.12;100.00;97005.91;10290710;28;20236;-66
2024/02/25 02:30:53;;;;;;;3.97;3.77;;;0.60;99.90;;;1.17;100.00;97004.59;10290883;28;20752;-66
2024/02/25 02:35:58;;;;;;;3.57;2.60;;;0.50;99.90;;;1.26;100.00;96996.91;10286502;28;20236;-66
2024/02/25 02:41:01;;;;;;;3.37;3.17;;;0.60;99.90;;;1.16;100.00;96992.78;10288911;28;20302;-67
2024/02/25 02:46:04;;;;;;;3.33;3.13;;;0.50;99.90;;;1.03;100.00;96992.56;10289407;28;20546;-67
2024/02/25 02:51:10;;;;;;;3.77;3.50;;;0.40;99.90;;;1.09;100.00;96976.34;10290356;28;20680;-66
2024/02/25 02:56:14;;;;;;;4.00;3.73;;;0.40;99.90;;;0.93;100.00;96977.53;10288728;28;20239;-67
2024/02/25 03:01:17;;;;;;;3.70;3.40;;;0.40;99.90;;;0.79;100.00;96974.78;10291976;28;20946;-66
2024/02/25 03:06:22;;;;;;;3.17;2.97;;;0.20;99.90;;;0.79;100.00;96968.88;10286600;28;20228;-66
2024/02/25 03:11:25;;;;;;;3.40;3.20;;;0.20;99.90;;;0.71;100.00;96970.78;10290212;28;20261;-66
2024/02/25 03:16:28;;;;;;;3.73;3.53;;;0.10;99.90;;;0.63;100.00;96969.28;10287218;28;20273;-66
2024/02/25 03:21:33;;;;;;;3.93;3.67;;;0.10;99.90;;;0.67;100.00;96958.72;10286871;28;20311;-66
2024/02/25 03:26:36;;;;;;;4.10;3.80;;;0.20;99.90;;;0.62;100.00;96977.59;10282656;28;20730;-66
2024/02/25 03:31:39;;;;;;;5.07;4.67;;;0.10;99.90;;;0.65;100.00;96972.81;10286718;28;20257;-66
2024/02/25 03:36:44;;;;;;;4.13;3.73;;;0.10;99.90;;;0.66;100.00;96967.03;10282689;28;20216;-66
2024/02/25 03:41:47;;;;;;;4.20;4.00;;;0.10;99.90;;;0.60;100.00;96969.94;10281555;28;20230;-66
2024/02/25 03:46:50;;;;;;;4.63;4.23;;;0.10;99.90;;;0.55;100.00;96972.84;10280677;28;20311;-66
2024/02/25 03:51:54;;;;;;;4.90;4.50;;;0.10;99.90;;;0.59;100.00;96959.75;10284770;28;20735;-66
2024/02/25 03:56:58;;;;;;;5.50;5.00;;;0.00;99.90;;;0.51;100.00;96954.09;10279478;28;20226;-66
2024/02/25 04:02:01;;;;;;;5.77;5.27;;;0.00;99.90;;;0.58;100.00;96968.06;10281817;28;20840;-66
2024/02/25 04:07:05;;;;;;;4.60;4.30;;;0.10;99.90;;;0.61;100.00;96964.16;10279660;28;20219;-66
2024/02/25 04:12:09;;;;;;;5.03;4.63;;;0.10;99.90;;;0.66;100.00;96972.06;10284335;28;20231;-68
2024/02/25 04:17:13;;;;;;;4.67;4.37;;;0.10;99.90;;;0.71;100.00;96963.22;10285805;28;20235;-66
2024/02/25 04:22:18;;;;;;;4.50;4.20;;;0.20;99.90;;;0.67;100.00;96959.59;10286565;28;20236;-67
2024/02/25 04:27:21;;;;;;;4.20;3.90;;;0.10;99.90;;;0.51;100.00;96958.25;10280731;28;20623;-67
2024/02/25 04:32:24;;;;;;;3.83;3.53;;;0.00;99.90;;;0.41;100.00;96952.50;10285552;28;20241;-67
2024/02/25 04:37:29;;;;;;;4.37;4.17;;;-0.10;99.90;;;0.42;100.00;96940.81;10282852;28;20685;-67
2024/02/25 04:42:32;;;;;;;4.00;3.80;;;-0.10;99.90;;;0.29;100.00;96943.97;10283087;28;20606;-66
2024/02/25 04:47:35;;;;;;;4.37;4.07;;;-0.20;99.90;;;0.32;100.00;96949.25;10279463;28;21008;-67
2024/02/25 04:52:40;;;;;;;4.47;4.17;;;-0.20;99.90;;;0.37;100.00;96953.00;10280745;28;20362;-66
2024/02/25 04:57:43;;;;;;;4.83;4.43;;;-0.20;99.90;;;0.37;100.00;96954.63;10280949;28;20289;-66
2024/02/25 05:02:46;;;;;;;4.43;4.03;;;-0.10;99.90;;;0.32;100.00;96956.78;10279243;28;20238;-66
2024/02/25 05:07:52;;;;;;;5.13;4.83;;;-0.20;99.90;;;0.25;100.00;96953.63;10283780;28;20250;-66
2024/02/25 05:12:55;;;;;;;4.57;4.17;;;-0.20;99.90;;;0.32;100.00;96953.41;10278283;28;20237;-66
2024/02/25 05:17:58;;;;;;;4.80;4.50;;;-0.10;99.90;;;0.37;100.00;96949.59;10283884;28;20234;-67
2024/02/25 05:23:03;;;;;;;3.90;3.70;;;-0.10;99.90;;;0.27;100.00;96952.13;10279528;28;20759;-67
2024/02/25 05:28:07;;;;;;;4.97;4.67;;;-0.30;99.90;;;0.31;100.00;96955.00;10284809;28;20560;-67
2024/02/25 05:33:10;;;;;;;18.43;13.10;;;-0.20;99.90;;;0.37;100.00;96957.13;10280373;28;20243;-67
2024/02/25 05:38:15;;;;;;;5.80;5.33;;;-0.20;99.90;;;0.34;100.00;96950.22;10279314;28;20319;-67
2024/02/25 05:43:19;;;;;;;7.07;6.40;;;-0.30;99.90;;;0.41;100.00;96949.97;10282191;28;20235;-66
2024/02/25 05:48:22;;;;;;;11.97;10.77;;;-0.30;99.90;;;0.44;100.00;96945.19;10277009;28;20246;-66
2024/02/25 05:53:26;;;;;;;7.27;6.67;;;-0.30;99.90;;;0.22;100.00;96951.75;10278577;28;20235;-66
2024/02/25 05:58:29;;;;;;;5.27;4.87;;;-0.50;99.90;;;0.09;100.00;96941.47;10281146;28;20234;-67
2024/02/25 06:03:33;;;;;;;4.60;4.10;;;-0.50;99.90;;;0.11;100.00;96942.47;10287415;28;20237;-67
2024/02/25 06:08:37;;;;;;;4.30;4.00;;;-0.50;99.90;;;0.13;100.00;96945.97;10293192;28;20227;-67
2024/02/25 06:13:41;;;;;;;4.63;4.23;;;-0.40;99.90;;;0.26;100.00;96952.88;10296179;28;20252;-67
2024/02/25 06:18:44;;;;;;;5.30;4.87;;;-0.30;99.90;;;0.32;100.00;96951.75;10296317;28;20231;-67
2024/02/25 06:23:48;;;;;;;4.13;3.83;;;-0.30;99.90;;;0.27;100.00;96942.09;10297378;28;20659;-67
2024/02/25 06:28:53;;;;;;;11.83;8.93;;;-0.30;99.90;;;0.34;100.00;96947.72;10299469;28;20230;-67
2024/02/25 06:33:56;;;;;;;4.20;3.80;;;-0.30;99.90;;;0.18;100.00;96944.72;10299802;28;20242;-67
2024/02/25 06:39:02;;;;;;;4.10;3.80;;;-0.40;99.90;;;0.28;100.00;96957.28;10304451;28;20265;-66
2024/02/25 06:44:06;;;;;;;4.93;4.53;;;-0.30;99.90;;;0.69;100.00;96957.22;10301611;28;20226;-68
2024/02/25 06:49:09;;;;;;;5.17;4.77;;;0.00;99.90;;;1.26;100.00;96955.03;10300464;28;20235;-67
2024/02/25 06:54:14;;;;;;;4.43;4.13;;;0.40;99.90;;;1.70;100.00;96954.16;10303867;28;20259;-67
2024/02/25 06:59:17;;;;;;;3.93;3.63;;;0.90;99.90;;;1.93;100.00;96958.41;10303621;28;20308;-68
2024/02/25 07:04:20;;;;;;;4.57;4.27;;;1.10;99.90;;;2.34;100.00;96960.59;10302228;28;20240;-67
2024/02/25 07:09:25;;;;;;;6.77;6.37;;;1.40;99.90;;;2.69;100.00;96958.13;10298658;28;20231;-67
2024/02/25 07:14:29;;;;;;;7.07;6.57;;;1.80;99.90;;;3.15;100.00;96957.25;10302302;28;20227;-67
2024/02/25 07:19:32;;;;;;;5.70;5.30;;;2.20;99.90;;;3.47;97.13;96945.97;10301732;28;20723;-67
2024/02/25 07:24:39;;;;;;;5.63;5.23;;;2.40;99.90;;;3.59;97.07;96951.00;10294658;28;20223;-67
2024/02/25 07:29:42;;;;;;;5.20;4.80;;;2.70;99.90;;;3.95;96.80;96946.69;10298692;28;20420;-67
2024/02/25 07:34:45;;;;;;;6.00;5.60;;;3.00;99.90;;;4.57;92.63;96960.09;10299343;28;20240;-67
2024/02/25 07:39:50;;;;;;;5.13;4.73;;;3.60;99.90;;;5.00;90.77;96951.84;10299378;28;20227;-67
2024/02/25 07:44:53;;;;;;;5.13;4.73;;;4.10;99.90;;;5.33;88.57;96938.78;10298972;28;20238;-67
2024/02/25 07:49:56;;;;;;;5.73;5.23;;;4.30;99.90;;;5.32;89.04;96942.09;10298591;28;20238;-67
2024/02/25 07:55:01;;;;;;;6.80;6.30;;;4.50;99.90;;;5.50;88.54;96944.03;10296718;28;20719;-67
2024/02/25 08:00:05;;;;;;;5.00;4.60;;;4.50;99.90;;;5.64;87.73;96943.19;10296207;28;20223;-67
2024/02/25 08:05:09;;;;;;;5.23;4.83;;;4.50;99.90;;;5.34;91.69;96943.06;10291000;28;20789;-67
2024/02/25 08:10:15;;;;;;;5.20;4.70;;;4.50;99.90;;;5.72;90.13;96936.91;10297295;28;20616;-67
2024/02/25 08:15:18;;;;;;;5.53;5.10;;;4.80;99.90;;;6.16;90.18;96931.13;10300883;28;20242;-66
2024/02/25 08:20:22;;;;;;;5.50;5.10;;;5.50;99.90;;;6.45;89.05;96919.25;10300239;28;20234;-66
2024/02/25 08:25:26;;;;;;;6.50;5.83;;;5.70;99.90;;;6.86;91.47;96919.03;10300158;28;20607;-66
2024/02/25 08:30:29;;;;;;;6.33;5.73;;;6.30;99.90;;;7.60;86.18;96912.88;10302920;28;20326;-66
2024/02/25 08:35:33;;;;;;;5.70;5.30;;;7.00;99.90;;;7.60;85.22;96923.94;10307130;28;21144;-67
2024/02/25 08:40:38;;;;;;;5.07;4.77;;;6.80;99.90;;;7.59;86.59;96926.41;10305893;28;20224;-66
2024/02/25 08:45:41;;;;;;;4.93;4.50;;;6.60;99.90;;;7.61;87.39;96923.16;10297390;28;20248;-67
2024/02/25 08:50:44;;;;;;;4.97;4.57;;;6.60;99.90;;;7.76;87.21;96925.63;10297636;28;20235;-66
2024/02/25 08:55:49;;;;;;;4.80;4.40;;;6.70;99.90;;;7.75;88.11;96915.34;10294134;28;20239;-67
2024/02/25 09:00:52;;;;;;;4.53;4.20;;;6.70;99.90;;;7.78;88.95;96912.97;10299129;28;20231;-66
2024/02/25 09:05:55;;;;;;;4.40;4.10;;;6.60;99.90;;;7.72;88.21;96913.53;10296853;28;20659;-67
2024/02/25 09:11:00;;;;;;;4.93;4.53;;;6.50;99.90;;;7.63;89.70;96916.47;10310662;22;20254;-65
2024/02/25 09:16:04;;;;;;;4.30;4.00;;;6.40;99.90;;;7.76;89.54;96909.50;10285267;28;20710;-65
2024/02/25 09:21:08;;;;;;;5.20;4.70;;;6.50;99.90;;;7.83;89.02;96904.78;10289206;28;20254;-65
2024/02/25 09:26:14;;;;;;;4.60;4.27;;;6.70;99.90;;;8.09;89.75;96911.22;10278878;28;20227;-65
2024/02/25 09:31:30;;;;;;;4.50;4.10;;;7.10;99.90;;;8.49;88.41;96900.53;10280229;28;20237;-65
2024/02/25 09:36:34;;;;;;;4.53;4.23;;;7.40;99.90;;;8.50;87.73;96894.66;10288569;28;20236;-65
2024/02/25 09:41:40;;;;;;;4.70;4.30;;;7.40;99.90;;;8.51;87.79;96883.66;10293419;28;20232;-66
2024/02/25 09:46:44;;;;;;;4.00;3.70;;;7.50;99.90;;;8.66;86.81;96891.16;10286179;28;20219;-65
2024/02/25 09:51:49;;;;;;;5.37;4.87;;;7.60;99.90;;;8.93;86.86;96881.44;10289334;28;20245;-65
2024/02/25 09:56:54;;;;;;;5.68;5.28;;;7.90;99.90;;;9.05;85.58;96865.84;10288917;28;20625;-64
2024/02/25 10:01:57;;;;;;;5.47;5.07;;;8.20;99.90;;;9.33;83.11;96868.00;10293655;28;20718;-64
2024/02/25 10:07:00;;;;;;;4.45;4.05;;;8.40;99.90;;;9.88;78.23;96870.44;10293671;28;20572;-65
2024/02/25 10:12:06;;;;;;;3.75;3.47;;;9.10;99.90;;;10.09;75.32;96859.41;10289975;28;20277;-66
2024/02/25 10:17:13;;;;;;;3.30;3.00;;;9.40;99.90;;;10.62;70.42;96860.81;10293817;28;20239;-64
2024/02/25 10:22:16;;;;;;;2.65;2.50;;;9.90;99.90;;;10.57;67.97;96849.50;10294629;28;20580;-64
2024/02/25 10:27:22;;;;;;;2.70;2.53;;;9.80;99.90;;;10.73;68.71;96854.44;10297967;28;20727;-65
2024/02/25 10:32:27;;;;;;;2.38;2.28;;;10.00;99.90;;;10.98;61.18;96845.16;10291908;28;20231;-64
2024/02/25 10:37:32;;;;;;;2.60;2.40;;;10.20;99.90;;;11.18;59.29;96835.69;10297155;28;20335;-65
2024/02/25 10:42:44;;;;;;;2.45;2.10;;;10.50;99.90;;;11.26;59.49;96840.28;10293819;28;20235;-64
2024/02/25 10:47:48;;;;;;;2.28;2.00;;;10.30;99.90;;;11.09;58.94;96836.22;10288990;28;20236;-65
2024/02/25 10:52:52;;;;;;;2.20;2.10;;;10.30;99.90;;;11.08;57.79;96829.38;10293472;28;20261;-65
2024/02/25 10:57:59;;;;;;;2.85;2.65;;;10.30;99.90;;;11.04;58.49;96817.28;10291800;28;20233;-65
2024/02/25 11:03:04;;;;;;;2.80;2.60;;;10.10;99.90;;;10.89;59.86;96811.59;10289124;28;20229;-64
2024/02/25 11:08:09;;;;;;;2.17;2.08;;;10.00;99.90;;;11.04;58.37;96799.38;10286585;28;20743;-66
2024/02/25 11:13:13;;;;;;;2.10;2.00;;;10.40;99.90;;;11.42;57.11;96790.59;10287570;28;20231;-65
2024/02/25 11:18:25;;;;;;;2.08;1.98;;;10.60;99.90;;;11.31;56.96;96785.88;10291227;28;20510;-63
2024/02/25 11:23:41;;;;;;;1.80;1.70;;;10.60;99.90;;;11.42;56.48;96784.59;10296194;28;20234;-64
2024/02/25 11:29:17;;;;;;;1.92;1.80;;;10.70;99.90;;;11.27;55.96;96770.44;10292615;28;20256;-65
2024/02/25 11:34:22;;;;;;;1.70;1.60;;;10.50;99.90;;;11.40;54.33;96769.19;10294102;28;20892;-65
2024/02/25 11:39:27;;;;;;;1.88;1.77;;;10.70;99.90;;;11.47;52.18;96744.66;10295179;28;20241;-65
2024/02/25 11:44:33;;;;;;;1.67;1.60;;;10.80;98.40;;;11.44;54.24;96745.44;10294030;28;20228;-65
2024/02/25 11:49:38;;;;;;;1.73;1.63;;;10.80;99.50;;;11.64;52.45;96725.66;10291527;28;21003;-64
2024/02/25 11:54:41;;;;;;;1.50;1.40;;;11.10;98.00;;;11.70;53.04;96731.00;10292159;28;20603;-65
2024/02/25 11:59:46;;;;;;;1.50;1.40;;;11.10;98.20;;;11.59;51.45;96716.97;10292113;28;20240;-66
2024/02/25 12:04:54;;;;;;;2.25;1.52;;;10.80;97.20;;;11.77;51.21;96715.84;10288276;28;20267;-65
2024/02/25 12:09:59;;;;;;;1.67;1.58;;;10.90;97.20;;;11.78;51.93;96707.34;10289737;28;20235;-65
2024/02/25 12:15:05;;;;;;;1.60;1.50;;;11.00;97.90;;;12.03;50.40;96709.06;10290699;28;20243;-66
2024/02/25 12:20:11;;;;;;;1.75;1.60;;;11.40;96.10;;;11.80;53.36;96700.59;10287086;28;20249;-66
2024/02/25 12:25:18;;;;;;;1.50;1.40;;;11.00;98.60;;;11.72;51.86;96698.63;10288545;28;20592;-65
2024/02/25 12:30:23;;;;;;;1.92;1.83;;;11.00;97.40;;;11.78;50.79;96694.53;10290150;28;20231;-65
2024/02/25 12:35:26;;;;;;;1.80;1.70;;;11.00;96.20;;;11.98;48.87;96670.50;10284967;28;20241;-65
2024/02/25 12:40:30;;;;;;;1.63;1.52;;;11.10;94.50;;;11.81;49.87;96661.38;10283381;28;20246;-65
2024/02/25 12:45:35;;;;;;;1.80;1.70;;;11.00;95.60;;;11.68;51.40;96668.66;10284435;28;20227;-65
2024/02/25 12:50:38;;;;;;;1.77;1.67;;;10.90;97.20;;;11.77;51.15;96664.66;10284702;28;20270;-65
2024/02/25 12:55:41;;;;;;;1.60;1.50;;;11.00;96.70;;;11.76;50.33;96647.53;10284414;28;20234;-65
2024/02/25 13:00:46;;;;;;;1.52;1.42;;;10.90;96.00;;;11.85;48.87;96635.06;10273951;28;20528;-66
2024/02/25 13:05:49;;;;;;;1.92;1.83;;;11.20;95.60;;;11.89;51.56;96635.22;10277947;28;20223;-65
2024/02/25 13:10:53;;;;;;;1.80;1.70;;;11.00;97.30;;;11.79;51.31;96622.03;10270601;28;20322;-65
2024/02/25 13:15:58;;;;;;;2.10;2.00;;;11.00;96.60;;;11.88;50.81;96622.38;10279765;28;20230;-65
2024/02/25 13:21:01;;;;;;;2.33;2.15;;;11.00;96.50;;;11.78;51.10;96616.06;10275934;28;20312;-65
2024/02/25 13:26:08;;;;;;;1.90;1.80;;;11.00;96.50;;;11.95;49.66;96609.81;10278348;28;20242;-65
2024/02/25 13:31:13;;;;;;;1.80;1.70;;;11.10;95.70;;;11.93;49.65;96593.53;10281203;28;20302;-65
2024/02/25 13:36:17;;;;;;;1.75;1.65;;;11.30;94.90;;;12.02;50.51;96592.97;10286974;28;20231;-65
2024/02/25 13:41:21;;;;;;;1.80;1.70;;;11.30;96.00;;;11.97;50.41;96591.06;10293667;28;20227;-65
2024/02/25 13:46:28;;;;;;;1.98;1.75;;;11.20;96.10;;;11.92;52.08;96573.00;10293056;28;20227;-65
2024/02/25 13:51:31;;;;;;;2.00;1.90;;;11.20;97.00;;;12.20;48.91;96563.59;10311235;28;20232;-66
2024/02/25 13:56:34;;;;;;;1.70;1.60;;;11.40;95.00;;;12.07;48.63;96557.22;10298781;28;20230;-65
2024/02/25 14:01:39;;;;;;;1.73;1.63;;;11.40;94.20;;;11.97;49.17;96550.09;10295805;28;20369;-65
2024/02/25 14:06:42;;;;;;;1.92;1.83;;;11.40;94.20;;;11.72;50.86;96541.63;10295826;28;20240;-65
2024/02/25 14:11:47;;;;;;;1.70;1.60;;;11.00;96.30;;;11.81;49.89;96535.91;10295037;28;20235;-66
2024/02/25 14:16:52;;;;;;;1.80;1.70;;;11.10;95.30;;;11.84;49.41;96529.19;10297333;28;20233;-65
2024/02/25 14:21:55;;;;;;;1.80;1.70;;;11.10;95.10;;;11.56;49.41;96537.72;10287429;28;20231;-66
2024/02/25 14:26:59;;;;;;;11.13;6.70;;;10.90;94.70;;;11.59;50.83;96530.16;10309415;28;20226;-65
2024/02/25 14:32:04;;;;;;;75.30;35.92;;;10.90;95.60;;;11.65;51.56;96524.34;10297714;28;20240;-67
2024/02/25 14:37:14;;;;;;;9.43;6.28;;;10.90;96.70;;;11.85;51.29;96520.75;10308700;28;20232;-64
2024/02/25 14:42:18;;;;;;;3.75;2.97;;;11.10;97.00;;;11.82;50.23;96514.63;10309500;28;20262;-66
2024/02/25 14:47:23;;;;;;;1.42;1.33;;;11.10;94.70;;;12.11;47.25;96506.16;10317592;28;20270;-65
2024/02/25 14:52:27;;;;;;;1.52;1.42;;;11.30;92.70;;;12.20;49.23;96491.88;10309568;28;20224;-65
2024/02/25 14:57:31;;;;;;;1.70;1.60;;;11.40;94.40;;;12.20;47.04;96497.00;10296957;28;20309;-65
2024/02/25 15:02:36;;;;;;;1.30;1.30;;;11.40;92.80;;;12.37;46.33;96483.81;10284319;28;20231;-64
2024/02/25 15:07:40;;;;;;;1.27;1.27;;;11.60;92.00;;;12.57;45.75;96486.94;10280507;28;20308;-64
2024/02/25 15:12:44;;;;;;;1.48;1.42;;;11.80;91.50;;;12.15;45.06;96478.91;10280009;28;20232;-65
2024/02/25 15:17:49;;;;;;;1.67;1.58;;;11.60;90.50;;;12.34;45.30;96470.94;10275588;28;20227;-64
2024/02/25 15:22:52;;;;;;;2.67;1.65;;;11.70;90.50;;;12.29;45.10;96471.63;10286253;28;20234;-64
2024/02/25 15:27:55;;;;;;;1.60;1.50;;;11.60;90.70;;;12.38;43.87;96477.00;10279917;28;20707;-64
2024/02/25 15:32:59;;;;;;;1.45;1.35;;;11.70;89.50;;;12.16;45.02;96452.47;10283514;28;20575;-66
2024/02/25 15:38:04;;;;;;;1.85;1.75;;;11.60;89.60;;;11.94;45.96;96461.25;10296287;28;20305;-65
2024/02/25 15:43:07;;;;;;;1.30;1.30;;;11.20;90.80;;;12.12;44.54;96458.34;10290546;28;20379;-66
2024/02/25 15:48:12;;;;;;;1.35;1.27;;;11.40;90.10;;;11.94;44.49;96448.47;10292138;28;21260;-65
2024/02/25 15:53:17;;;;;;;1.63;1.52;;;11.30;89.40;;;11.92;45.16;96437.28;10302491;28;20317;-65
2024/02/25 15:58:22;;;;;;;1.75;1.65;;;11.20;90.10;;;11.51;47.00;96434.38;10313192;28;20230;-65
2024/02/25 16:03:26;;;;;;;1.60;1.50;;;10.90;91.30;;;11.75;45.70;96433.34;10311394;28;20677;-65
2024/02/25 16:08:29;;;;;;;1.30;1.30;;;11.20;90.40;;;11.80;46.46;96416.44;10315044;28;20223;-65
2024/02/25 16:13:33;;;;;;;1.67;1.50;;;11.10;91.00;;;11.76;46.45;96414.59;10299682;28;20234;-65
2024/02/25 16:18:37;;;;;;;1.80;1.70;;;11.10;91.10;;;11.60;46.35;96419.28;10308660;28;20218;-65
2024/02/25 16:23:43;;;;;;;2.00;1.90;;;11.00;91.00;;;11.23;47.59;96407.94;10308156;28;20963;-64
2024/02/25 16:28:47;;;;;;;1.80;1.70;;;10.60;92.10;;;11.50;46.90;96401.91;10293866;28;21097;-64
2024/02/25 16:33:51;;;;;;;2.15;2.05;;;10.80;91.50;;;11.37;47.05;96408.34;10292555;28;20223;-65
2024/02/25 16:38:55;;;;;;;1.80;1.65;;;10.60;92.10;;;11.21;47.96;96390.78;10295161;28;20831;-64
2024/02/25 16:43:58;;;;;;;2.03;1.92;;;10.40;92.10;;;10.96;49.39;96390.06;10295647;28;20268;-65
2024/02/25 16:49:04;;;;;;;2.35;2.17;;;10.20;93.40;;;10.60;51.59;96405.06;10301206;28;20713;-66
2024/02/25 16:54:07;;;;;;;2.67;2.47;;;9.80;96.60;;;10.23;54.54;96401.22;10301761;28;20234;-65
2024/02/25 16:59:11;;;;;;;2.70;2.60;;;9.40;98.90;;;9.87;57.05;96409.34;10301113;28;21272;-65
2024/02/25 17:04:15;;;;;;;9.45;8.90;;;9.00;99.90;;;9.46;59.58;96401.00;10296771;28;20241;-64
2024/02/25 17:09:18;;;;;;;5.15;4.75;;;8.70;99.90;;;9.36;61.20;96393.84;10296978;28;20318;-65
2024/02/25 17:14:22;;;;;;;7.85;6.82;;;8.40;99.90;;;8.88;63.03;96397.91;10299223;28;21759;-65
2024/02/25 17:19:27;;;;;;;5.90;5.30;;;8.10;99.90;;;8.65;64.45;96402.94;10292999;28;20228;-65
2024/02/25 17:24:30;;;;;;;6.10;5.60;;;7.80;99.90;;;8.40;65.63;96393.41;10297145;28;20450;-65
2024/02/25 17:29:34;;;;;;;7.28;6.65;;;7.50;99.90;;;8.17;66.84;96401.75;10298529;28;20242;-65
2024/02/25 17:34:38;;;;;;;24.93;22.67;;;7.30;99.90;;;7.91;69.77;96396.41;10290568;28;20755;-65
2024/02/25 17:39:42;;;;;;;5.67;5.27;;;6.90;99.90;;;7.55;70.98;96386.34;10285130;28;20235;-65
2024/02/25 17:44:45;;;;;;;12.50;11.50;;;6.60;99.90;;;7.37;72.21;96390.59;10292210;28;20375;-65
2024/02/25 17:49:50;;;;;;;6.50;6.00;;;6.50;99.90;;;7.12;72.82;96369.16;10296181;28;20232;-66
2024/02/25 17:54:53;;;;;;;5.50;5.10;;;6.20;99.90;;;7.23;73.39;96373.06;10295516;28;20944;-66
2024/02/25 17:59:57;;;;;;;7.77;6.97;;;6.30;99.90;;;6.83;75.90;96360.19;10298438;28;20223;-66
2024/02/25 18:05:01;;;;;;;6.03;5.53;;;6.10;99.90;;;6.71;75.88;96355.41;10290041;28;21292;-64
2024/02/25 18:10:06;;;;;;;5.83;5.30;;;6.00;99.90;;;6.59;77.04;96347.22;10294675;28;20728;-65
2024/02/25 18:15:11;;;;;;;3.60;3.30;;;5.80;99.90;;;6.55;77.60;96347.84;10298337;28;20226;-65
2024/02/25 18:20:15;;;;;;;4.20;3.80;;;5.80;99.90;;;6.43;78.08;96339.66;10299750;28;20235;-65
2024/02/25 18:25:19;;;;;;;4.47;4.13;;;5.60;99.90;;;6.39;78.80;96337.78;10298864;28;20231;-65
2024/02/25 18:30:22;;;;;;;4.70;4.30;;;5.60;99.90;;;6.28;80.06;96333.03;10297118;28;20699;-65
2024/02/25 18:35:27;;;;;;;6.00;5.60;;;5.60;99.90;;;6.21;80.53;96325.94;10310262;28;20231;-64
2024/02/25 18:40:32;;;;;;;3.97;3.67;;;5.50;99.90;;;6.11;80.94;96316.13;10297845;28;20316;-66
2024/02/25 18:45:35;;;;;;;3.90;3.60;;;5.40;99.90;;;6.09;80.25;96310.09;10301701;28;20286;-65
2024/02/25 18:50:40;;;;;;;3.90;3.60;;;5.40;99.90;;;6.11;79.72;96297.53;10303919;28;20235;-65
2024/02/25 18:55:46;;;;;;;3.83;3.63;;;5.40;99.90;;;6.18;79.91;96289.38;10300076;28;20360;-66
2024/02/25 19:00:50;;;;;;;10.83;8.67;;;5.50;99.90;;;6.27;81.52;96275.50;10298962;28;20226;-65
2024/02/25 19:05:54;;;;;;;4.23;3.87;;;5.40;99.90;;;6.06;82.49;96269.38;10303866;28;20233;-66
2024/02/25 19:10:59;;;;;;;5.20;4.70;;;5.20;99.90;;;5.77;83.63;96266.25;10299201;28;20231;-66
2024/02/25 19:16:04;;;;;;;5.47;5.07;;;4.90;99.90;;;5.61;84.21;96249.44;10305791;28;20249;-69
2024/02/25 19:21:09;;;;;;;5.60;5.10;;;4.80;99.90;;;5.37;84.22;96251.59;10300933;28;20263;-65
2024/02/25 19:26:12;;;;;;;6.80;6.20;;;4.60;99.90;;;5.27;84.50;96246.88;10298533;28;20249;-65
2024/02/25 19:31:17;;;;;;;8.70;8.00;;;4.50;99.90;;;5.28;85.50;96242.69;10295469;28;20234;-65
2024/02/25 19:36:22;;;;;;;8.47;7.67;;;4.50;99.90;;;5.19;86.92;96245.63;10299971;28;20620;-65
2024/02/25 19:41:26;;;;;;;7.90;7.30;;;4.40;99.90;;;5.06;88.39;96240.69;10298075;28;20380;-65
2024/02/25 19:46:30;;;;;;;8.13;7.43;;;4.30;99.90;;;4.83;88.26;96236.97;10301851;28;20829;-65
2024/02/25 19:51:35;;;;;;;10.07;9.07;;;4.10;99.90;;;4.90;88.60;96239.91;10310356;28;20233;-65
2024/02/25 19:56:38;;;;;;;10.37;9.57;;;4.00;99.90;;;4.78;89.98;96243.44;10308866;28;20730;-65
2024/02/25 20:01:41;;;;;;;10.80;9.80;;;3.90;99.90;;;4.70;90.04;96230.41;10304943;28;20282;-66
2024/02/25 20:06:48;;;;;;;9.37;8.50;;;3.80;99.90;;;4.51;90.38;96221.81;10312087;28;20233;-65
2024/02/25 20:11:51;;;;;;;8.43;7.73;;;3.70;99.90;;;4.53;89.86;96221.91;10293886;28;20250;-65
2024/02/25 20:16:54;;;;;;;8.00;5.83;;;3.70;99.90;;;4.57;89.45;96220.41;10294941;28;20227;-65
2024/02/25 20:21:59;;;;;;;7.40;6.70;;;3.70;99.90;;;4.26;91.26;96216.22;10315006;28;20244;-65
2024/02/25 20:27:03;;;;;;;6.67;6.03;;;3.60;99.90;;;4.34;91.43;96207.41;10308158;28;20235;-65
2024/02/25 20:32:08;;;;;;;10.17;8.00;;;3.70;99.90;;;4.43;91.71;96200.31;10293854;28;20235;-65
2024/02/25 20:37:13;;;;;;;8.33;7.53;;;3.70;99.90;;;4.25;92.30;96194.28;10304537;28;20293;-66
2024/02/25 20:42:16;;;;;;;7.60;6.90;;;3.60;99.90;;;4.28;92.85;96199.50;10311546;28;20338;-65
2024/02/25 20:47:24;;;;;;;9.53;8.63;;;3.50;99.90;;;4.32;92.62;96190.41;10307667;28;20721;-65
2024/02/25 20:52:30;;;;;;;7.13;6.53;;;3.50;99.90;;;4.12;94.07;96189.34;10295362;28;20628;-66
2024/02/25 20:57:34;;;;;;;8.77;7.80;;;3.50;99.90;;;4.24;93.55;96182.44;10293417;28;20233;-66
2024/02/25 21:02:37;;;;;;;9.40;8.50;;;3.50;99.90;;;4.23;92.78;96181.53;10292545;28;20265;-64
2024/02/25 21:07:42;;;;;;;9.73;8.77;;;3.50;99.90;;;4.04;94.17;96194.84;10297408;28;20237;-66
2024/02/25 21:12:45;;;;;;;10.23;8.23;;;3.40;99.90;;;4.31;92.86;96194.59;10296022;28;20229;-66
2024/02/25 21:17:48;;;;;;;9.90;9.00;;;3.50;99.90;;;4.21;94.41;96184.78;10285502;28;20234;-65